Time;durP1;ratioP1;P1;durP2;ratioP2;P2;SDS_P1;SDS_P2;PMS_P1;PMS_P2;Temp;Humidity;BMP_temperature;BMP_pressure;BME280_temperature;BME280_humidity;BME280_pressure;Samples;Min_cycle;Max_cycle;Signal;HPM_P1;HPM_P2
2023/05/11 00:01:05;;;;;;;8.70;7.57;;;11.70;99.90;;;;;;5092782;28;20032;-58
2023/05/11 00:03:31;;;;;;;9.60;7.68;;;11.60;99.90;;;;;;5092456;28;20040;-59
2023/05/11 00:05:57;;;;;;;13.93;8.60;;;11.70;99.90;;;;;;5092967;28;20044;-60
2023/05/11 00:08:23;;;;;;;10.57;8.20;;;11.60;99.90;;;;;;5093320;28;20093;-60
2023/05/11 00:10:49;;;;;;;9.50;7.55;;;11.70;99.90;;;;;;5091692;28;20449;-59
2023/05/11 00:13:15;;;;;;;17.75;7.53;;;11.60;99.90;;;;;;5092809;28;20052;-59
2023/05/11 00:15:41;;;;;;;22.95;7.50;;;11.50;99.90;;;;;;5092306;28;20090;-59
2023/05/11 00:18:06;;;;;;;11.60;8.40;;;11.50;99.90;;;;;;5092291;28;20394;-59
2023/05/11 00:20:32;;;;;;;12.38;7.07;;;11.50;99.90;;;;;;5091989;28;20047;-59
2023/05/11 00:22:57;;;;;;;9.70;7.55;;;11.70;99.90;;;;;;5092474;28;20036;-59
2023/05/11 00:25:23;;;;;;;10.77;7.82;;;11.70;99.90;;;;;;5091165;28;20135;-59
2023/05/11 00:27:49;;;;;;;11.23;7.70;;;11.50;99.90;;;;;;5092261;28;20067;-59
2023/05/11 00:30:15;;;;;;;11.40;7.63;;;11.70;99.90;;;;;;5092415;28;20028;-59
2023/05/11 00:32:41;;;;;;;11.32;7.70;;;11.50;99.90;;;;;;5092164;28;20043;-59
2023/05/11 00:35:08;;;;;;;11.27;7.88;;;11.50;99.90;;;;;;5090943;28;20112;-59
2023/05/11 00:37:34;;;;;;;10.80;7.57;;;11.60;99.90;;;;;;5092280;28;20141;-60
2023/05/11 00:39:59;;;;;;;11.05;7.88;;;11.40;99.90;;;;;;5092471;28;20131;-60
2023/05/11 00:42:25;;;;;;;15.05;8.48;;;11.40;99.90;;;;;;5078382;28;20045;-60
2023/05/11 00:44:51;;;;;;;10.00;7.63;;;11.70;99.90;;;;;;5090300;28;20033;-61
2023/05/11 00:47:16;;;;;;;10.57;7.93;;;11.70;99.90;;;;;;5092179;28;20035;-61
2023/05/11 00:49:42;;;;;;;10.18;8.00;;;11.60;99.90;;;;;;5092474;28;20111;-60
2023/05/11 00:52:08;;;;;;;11.32;7.53;;;11.70;99.90;;;;;;5092659;28;20071;-60
2023/05/11 00:54:35;;;;;;;8.95;7.45;;;11.60;99.90;;;;;;5092778;28;20120;-61
2023/05/11 00:57:01;;;;;;;9.73;7.20;;;11.60;99.90;;;;;;5092358;28;20845;-61
2023/05/11 00:59:27;;;;;;;8.73;7.03;;;11.60;99.90;;;;;;5092549;28;20089;-61
2023/05/11 01:01:53;;;;;;;9.57;7.18;;;11.60;99.90;;;;;;5092181;28;20036;-60
2023/05/11 01:04:19;;;;;;;20.75;7.05;;;11.50;99.90;;;;;;5092308;28;20479;-60
2023/05/11 01:07:04;;;;;;;11.82;7.13;;;11.40;99.90;;;;;;5091433;28;20486;-60
2023/05/11 01:09:48;;;;;;;10.23;7.90;;;11.40;99.90;;;;;;5079805;28;20036;-59
2023/05/11 01:12:32;;;;;;;8.23;6.53;;;11.40;99.90;;;;;;5091427;28;20110;-58
2023/05/11 01:15:13;;;;;;;9.73;6.65;;;11.30;99.90;;;;;;5091746;28;20376;-58
2023/05/11 01:18:06;;;;;;;8.48;6.88;;;11.30;99.90;;;;;;5090640;28;20178;-59
2023/05/11 01:20:32;;;;;;;9.05;7.32;;;11.40;99.90;;;;;;5091809;28;20072;-59
2023/05/11 01:23:06;;;;;;;9.63;7.13;;;11.30;99.90;;;;;;5091744;28;20071;-59
2023/05/11 01:25:32;;;;;;;12.38;8.43;;;11.30;99.90;;;;;;5091508;28;20047;-59
2023/05/11 01:28:29;;;;;;;10.13;7.97;;;11.40;99.90;;;;;;5091672;28;20032;-59
2023/05/11 01:31:09;;;;;;;11.38;8.50;;;11.40;99.90;;;;;;5091432;28;20452;-59
2023/05/11 01:33:38;;;;;;;12.40;8.20;;;11.40;99.90;;;;;;5091662;28;20421;-59
2023/05/11 01:36:08;;;;;;;9.90;7.90;;;11.40;99.90;;;;;;5083680;28;20079;-59
2023/05/11 01:38:40;;;;;;;15.15;9.25;;;11.50;99.90;;;;;;5088965;28;20155;-59
2023/05/11 01:41:13;;;;;;;12.80;8.43;;;11.40;99.90;;;;;;5091567;28;20040;-59
2023/05/11 01:43:41;;;;;;;11.55;8.70;;;11.60;99.90;;;;;;5091258;28;20036;-59
2023/05/11 01:46:09;;;;;;;10.43;8.40;;;11.50;99.90;;;;;;5077100;28;20487;-59
2023/05/11 01:48:39;;;;;;;16.80;10.18;;;11.40;99.90;;;;;;5091609;28;20043;-59
2023/05/11 01:51:06;;;;;;;9.77;8.55;;;11.40;99.90;;;;;;5091605;28;20048;-59
2023/05/11 01:53:35;;;;;;;14.75;9.77;;;11.40;99.90;;;;;;5086597;28;20494;-59
2023/05/11 01:56:04;;;;;;;13.75;8.52;;;11.60;99.90;;;;;;5086444;28;20062;-59
2023/05/11 01:58:31;;;;;;;10.63;8.82;;;11.40;99.90;;;;;;5095126;28;20032;-58
2023/05/11 02:00:59;;;;;;;11.98;8.60;;;11.50;99.90;;;;;;5095174;28;20096;-59
2023/05/11 02:03:26;;;;;;;14.63;8.73;;;11.50;99.90;;;;;;5093473;28;20044;-59
2023/05/11 02:05:53;;;;;;;13.60;9.07;;;11.50;99.90;;;;;;5095014;28;20097;-59
2023/05/11 02:08:20;;;;;;;11.50;8.80;;;11.70;99.90;;;;;;5094595;28;20486;-59
2023/05/11 02:10:49;;;;;;;11.82;8.10;;;11.50;99.90;;;;;;5087967;28;20036;-60
2023/05/11 02:13:17;;;;;;;12.15;8.68;;;11.70;99.90;;;;;;5085926;28;20113;-59
2023/05/11 02:15:44;;;;;;;11.95;8.77;;;11.60;99.90;;;;;;5094465;28;20068;-59
2023/05/11 02:18:14;;;;;;;10.13;8.10;;;11.50;99.90;;;;;;5094748;28;20032;-59
2023/05/11 02:20:43;;;;;;;14.85;9.57;;;11.60;99.90;;;;;;5093289;28;20055;-59
2023/05/11 02:23:10;;;;;;;11.02;8.00;;;11.70;99.90;;;;;;5094232;28;20040;-60
2023/05/11 02:25:37;;;;;;;13.05;8.15;;;11.60;99.90;;;;;;5093560;28;20036;-60
2023/05/11 02:28:03;;;;;;;12.80;9.05;;;11.50;99.90;;;;;;5092238;28;20039;-59
2023/05/11 02:30:31;;;;;;;16.27;9.10;;;11.40;99.90;;;;;;5082218;28;20036;-59
2023/05/11 02:33:04;;;;;;;11.00;9.03;;;11.50;99.90;;;;;;5087076;28;20033;-59
2023/05/11 02:35:35;;;;;;;15.82;8.95;;;11.60;99.90;;;;;;5088222;28;20632;-59
2023/05/11 02:38:03;;;;;;;15.77;9.55;;;11.60;99.90;;;;;;5094198;28;20127;-59
2023/05/11 02:40:33;;;;;;;20.38;10.40;;;11.50;99.90;;;;;;5094413;28;20086;-59
2023/05/11 02:43:08;;;;;;;12.52;8.70;;;11.60;99.90;;;;;;5079829;28;20039;-59
2023/05/11 02:45:35;;;;;;;15.60;8.30;;;11.40;99.90;;;;;;5094165;28;20036;-59
2023/05/11 02:48:06;;;;;;;13.82;9.77;;;11.70;99.90;;;;;;5093736;28;20566;-59
2023/05/11 02:50:36;;;;;;;14.73;8.68;;;11.40;99.90;;;;;;5094007;28;20497;-59
2023/05/11 02:53:08;;;;;;;11.40;8.38;;;11.50;99.90;;;;;;5093950;28;20417;-59
2023/05/11 02:55:34;;;;;;;9.15;6.97;;;11.40;99.90;;;;;;5093908;28;20047;-59
2023/05/11 02:58:00;;;;;;;9.27;7.05;;;11.60;99.90;;;;;;5090800;28;20719;-59
2023/05/11 03:00:26;;;;;;;9.82;7.00;;;11.40;99.90;;;;;;5082576;28;20032;-59
2023/05/11 03:02:51;;;;;;;9.52;7.20;;;11.50;99.90;;;;;;5093519;28;20123;-59
2023/05/11 03:05:17;;;;;;;9.85;7.53;;;11.40;99.90;;;;;;5092728;28;20107;-59
2023/05/11 03:07:43;;;;;;;9.18;7.93;;;11.30;99.90;;;;;;5093854;28;20119;-59
2023/05/11 03:10:09;;;;;;;10.52;7.30;;;11.40;99.90;;;;;;5093366;28;20504;-59
2023/05/11 03:12:35;;;;;;;9.48;7.65;;;11.40;99.90;;;;;;5093515;28;20044;-59
2023/05/11 03:15:03;;;;;;;10.10;7.65;;;11.50;99.90;;;;;;5093231;28;20044;-60
2023/05/11 03:17:30;;;;;;;11.40;8.05;;;11.30;99.90;;;;;;5093353;28;20469;-60
2023/05/11 03:19:58;;;;;;;11.63;9.07;;;11.50;99.90;;;;;;5093385;28;20052;-59
2023/05/11 03:22:25;;;;;;;11.07;8.65;;;11.30;99.90;;;;;;5086047;28;20082;-60
2023/05/11 03:24:51;;;;;;;9.43;7.78;;;11.30;99.90;;;;;;5086850;28;20052;-58
2023/05/11 03:27:17;;;;;;;11.90;8.45;;;11.40;99.90;;;;;;5093315;28;20447;-60
2023/05/11 03:29:44;;;;;;;12.57;7.80;;;11.30;99.90;;;;;;5092880;28;20039;-58
2023/05/11 03:32:11;;;;;;;10.30;8.25;;;11.40;99.90;;;;;;5088719;28;20433;-59
2023/05/11 03:34:37;;;;;;;15.88;8.82;;;11.30;99.90;;;;;;5082524;28;20059;-59
2023/05/11 03:37:06;;;;;;;10.93;7.78;;;11.30;99.90;;;;;;5092996;28;20044;-59
2023/05/11 03:39:35;;;;;;;10.45;7.90;;;11.30;99.90;;;;;;5092966;28;20048;-59
2023/05/11 03:42:02;;;;;;;11.00;7.90;;;11.10;99.90;;;;;;5092744;28;20513;-59
2023/05/11 03:44:30;;;;;;;10.65;7.90;;;11.20;99.90;;;;;;5093059;28;20040;-59
2023/05/11 03:46:58;;;;;;;18.13;8.90;;;11.30;99.90;;;;;;5093109;28;20111;-58
2023/05/11 03:49:24;;;;;;;12.07;9.50;;;11.10;99.90;;;;;;5092980;28;20028;-59
2023/05/11 03:51:52;;;;;;;12.65;9.45;;;11.10;99.90;;;;;;5091783;28;20039;-59
2023/05/11 03:54:18;;;;;;;14.52;9.77;;;11.30;99.90;;;;;;5091688;28;20082;-59
2023/05/11 03:56:43;;;;;;;13.10;9.50;;;11.20;99.90;;;;;;5092679;28;20490;-59
2023/05/11 03:59:15;;;;;;;15.75;10.60;;;11.20;99.90;;;;;;5092533;28;20040;-59
2023/05/11 04:01:41;;;;;;;15.77;10.70;;;11.20;99.90;;;;;;5091561;28;20081;-59
2023/05/11 04:04:07;;;;;;;17.00;10.93;;;11.20;99.90;;;;;;5092512;28;20118;-59
2023/05/11 04:06:33;;;;;;;19.25;12.05;;;11.30;99.90;;;;;;5092725;28;20186;-59
2023/05/11 04:08:58;;;;;;;22.10;13.55;;;11.10;99.90;;;;;;5092660;28;20036;-59
2023/05/11 04:11:26;;;;;;;17.88;11.95;;;11.30;99.90;;;;;;5092268;28;20036;-59
2023/05/11 04:13:52;;;;;;;22.02;13.73;;;11.30;99.90;;;;;;5092794;28;20129;-59
2023/05/11 04:16:17;;;;;;;19.92;12.38;;;11.30;99.90;;;;;;5092183;28;20497;-59
2023/05/11 04:18:43;;;;;;;22.08;13.23;;;11.20;99.90;;;;;;5092431;28;20547;-59
2023/05/11 04:21:09;;;;;;;18.60;12.32;;;11.30;99.90;;;;;;5092229;28;20093;-59
2023/05/11 04:23:34;;;;;;;28.45;15.68;;;11.20;99.90;;;;;;5092336;28;20044;-59
2023/05/11 04:26:00;;;;;;;27.27;15.35;;;11.40;99.90;;;;;;5092279;28;20044;-60
2023/05/11 04:28:26;;;;;;;34.38;15.68;;;11.40;99.90;;;;;;5092291;28;20039;-59
2023/05/11 04:30:56;;;;;;;31.58;16.27;;;11.30;99.90;;;;;;5092245;28;20475;-58
2023/05/11 04:33:22;;;;;;;44.75;19.08;;;11.50;99.90;;;;;;5078986;28;20043;-58
2023/05/11 04:35:52;;;;;;;58.58;21.33;;;11.20;99.90;;;;;;5090888;28;20085;-59
2023/05/11 04:38:18;;;;;;;77.30;21.20;;;11.30;99.90;;;;;;5092171;28;20055;-59
2023/05/11 04:40:45;;;;;;;67.72;22.83;;;11.20;99.90;;;;;;5091777;28;20056;-59
2023/05/11 04:43:11;;;;;;;46.65;20.52;;;11.30;99.90;;;;;;5090936;28;20048;-59
2023/05/11 04:45:37;;;;;;;49.13;20.30;;;11.40;99.90;;;;;;5091876;28;20081;-59
2023/05/11 04:48:03;;;;;;;50.67;20.23;;;11.20;99.90;;;;;;5091925;28;20032;-59
2023/05/11 04:50:28;;;;;;;48.17;19.05;;;11.20;99.90;;;;;;5092071;28;20032;-59
2023/05/11 04:52:54;;;;;;;41.95;17.33;;;11.40;99.90;;;;;;5092025;28;20085;-59
2023/05/11 04:55:20;;;;;;;35.47;15.68;;;11.20;99.90;;;;;;5091969;28;20036;-59
2023/05/11 04:57:45;;;;;;;28.45;14.70;;;11.30;99.90;;;;;;5091895;28;20103;-59
2023/05/11 05:00:11;;;;;;;38.10;15.77;;;11.20;99.90;;;;;;5091865;28;20047;-61
2023/05/11 05:02:37;;;;;;;29.52;14.23;;;11.30;99.90;;;;;;5092171;28;20039;-60
2023/05/11 05:05:03;;;;;;;32.53;15.70;;;11.40;99.90;;;;;;5092187;28;20492;-60
2023/05/11 05:07:28;;;;;;;27.90;14.20;;;11.20;99.90;;;;;;5091962;28;20409;-60
2023/05/11 05:09:54;;;;;;;27.75;14.57;;;11.10;99.90;;;;;;5090334;28;20046;-61
2023/05/11 05:12:20;;;;;;;23.77;13.43;;;11.30;99.90;;;;;;5091974;28;20048;-60
2023/05/11 05:14:45;;;;;;;28.95;14.18;;;11.40;99.90;;;;;;5090405;28;20123;-60
2023/05/11 05:17:11;;;;;;;26.33;13.32;;;11.40;99.90;;;;;;5091883;28;20071;-60
2023/05/11 05:19:37;;;;;;;27.30;14.05;;;11.40;99.90;;;;;;5090523;28;20478;-62
2023/05/11 05:22:03;;;;;;;28.50;14.10;;;11.40;99.90;;;;;;5091853;28;20470;-60
2023/05/11 05:24:28;;;;;;;25.98;14.52;;;11.30;99.90;;;;;;5091664;28;20040;-60
2023/05/11 05:26:55;;;;;;;23.38;13.52;;;11.50;99.90;;;;;;5091821;28;20082;-61
2023/05/11 05:29:20;;;;;;;27.70;12.85;;;11.20;99.90;;;;;;5093347;28;20127;-60
2023/05/11 05:31:46;;;;;;;25.80;13.50;;;11.40;99.90;;;;;;5094738;28;20127;-61
2023/05/11 05:34:12;;;;;;;29.05;13.15;;;11.50;99.90;;;;;;5081379;28;20043;-62
2023/05/11 05:36:38;;;;;;;19.00;11.48;;;11.40;99.90;;;;;;5096036;28;20043;-60
2023/05/11 05:39:08;;;;;;;21.55;12.85;;;11.40;99.90;;;;;;5095381;28;20043;-60
2023/05/11 05:41:35;;;;;;;26.67;14.32;;;11.50;99.90;;;;;;5087417;28;20087;-59
2023/05/11 05:44:01;;;;;;;19.85;12.75;;;11.40;99.90;;;;;;5095400;28;20036;-60
2023/05/11 05:46:27;;;;;;;22.88;13.50;;;11.40;99.90;;;;;;5095556;28;20574;-60
2023/05/11 05:48:52;;;;;;;22.83;14.00;;;11.40;99.90;;;;;;5093759;28;20070;-60
2023/05/11 05:51:18;;;;;;;22.50;13.13;;;11.60;99.90;;;;;;5095040;28;20359;-60
2023/05/11 05:53:44;;;;;;;27.88;14.48;;;11.70;99.90;;;;;;5095042;28;20045;-61
2023/05/11 05:56:09;;;;;;;26.60;15.77;;;11.70;99.90;;;;;;5094859;28;20058;-60
2023/05/11 05:58:35;;;;;;;27.08;15.88;;;11.60;99.90;;;;;;5095261;28;20036;-60
2023/05/11 06:01:01;;;;;;;26.75;14.75;;;11.50;99.90;;;;;;5094829;28;20044;-60
2023/05/11 06:03:26;;;;;;;26.17;14.45;;;11.70;99.90;;;;;;5094777;28;20063;-60
2023/05/11 06:05:52;;;;;;;23.02;14.95;;;11.50;99.90;;;;;;5094402;28;20043;-61
2023/05/11 06:08:17;;;;;;;26.17;15.05;;;11.60;99.90;;;;;;5094664;28;20092;-60
2023/05/11 06:10:43;;;;;;;25.35;14.20;;;11.60;99.90;;;;;;5095076;28;20032;-61
2023/05/11 06:13:09;;;;;;;24.75;15.05;;;11.60;99.90;;;;;;5094344;28;20036;-60
2023/05/11 06:15:34;;;;;;;19.77;11.65;;;11.70;99.90;;;;;;5094620;28;20146;-60
2023/05/11 06:18:00;;;;;;;18.67;12.65;;;11.80;99.90;;;;;;5094634;28;20390;-60
2023/05/11 06:20:25;;;;;;;19.90;12.25;;;11.70;99.90;;;;;;5094601;28;20040;-60
2023/05/11 06:22:51;;;;;;;16.90;9.93;;;11.80;99.90;;;;;;5094743;28;20040;-60
2023/05/11 06:25:17;;;;;;;15.45;9.90;;;11.90;99.90;;;;;;5094922;28;20033;-59
2023/05/11 06:27:42;;;;;;;16.75;9.88;;;11.90;99.90;;;;;;5094867;28;20036;-60
2023/05/11 06:30:08;;;;;;;15.13;9.50;;;11.80;99.90;;;;;;5094652;28;20032;-60
2023/05/11 06:32:34;;;;;;;16.98;10.65;;;11.70;99.90;;;;;;5087754;28;20120;-60
2023/05/11 06:35:00;;;;;;;15.13;10.07;;;11.90;99.90;;;;;;5086444;28;20504;-61
2023/05/11 06:37:28;;;;;;;14.18;9.75;;;11.90;99.90;;;;;;5093408;28;20044;-60
2023/05/11 06:39:54;;;;;;;19.35;9.73;;;12.10;99.90;;;;;;5092843;28;20055;-60
2023/05/11 06:42:22;;;;;;;15.98;9.27;;;12.10;99.90;;;;;;5094115;28;20040;-59
2023/05/11 06:44:48;;;;;;;16.98;10.68;;;12.20;99.90;;;;;;5094205;28;20075;-60
2023/05/11 06:47:13;;;;;;;15.77;9.27;;;12.20;99.90;;;;;;5094005;28;20028;-60
2023/05/11 06:49:41;;;;;;;19.05;10.70;;;12.00;99.90;;;;;;5093936;28;20119;-60
2023/05/11 06:52:08;;;;;;;16.35;9.73;;;12.10;99.90;;;;;;5093654;28;20093;-61
2023/05/11 06:54:34;;;;;;;16.83;9.75;;;12.10;99.90;;;;;;5093950;28;20043;-60
2023/05/11 06:57:00;;;;;;;15.93;10.57;;;12.30;99.90;;;;;;5093752;28;20107;-60
2023/05/11 06:59:26;;;;;;;20.15;10.57;;;12.10;99.90;;;;;;5093724;28;20578;-60
2023/05/11 07:01:52;;;;;;;19.50;10.85;;;12.10;99.90;;;;;;5093715;28;20486;-60
2023/05/11 07:04:18;;;;;;;17.40;10.98;;;12.20;99.90;;;;;;5093727;28;20032;-60
2023/05/11 07:06:43;;;;;;;19.42;10.85;;;12.20;99.90;;;;;;5093529;28;20040;-61
2023/05/11 07:09:09;;;;;;;22.17;12.52;;;12.20;99.90;;;;;;5093888;28;20039;-61
2023/05/11 07:11:35;;;;;;;20.65;11.32;;;12.30;99.90;;;;;;5093561;28;20077;-60
2023/05/11 07:14:01;;;;;;;18.90;11.25;;;12.30;99.90;;;;;;5093870;28;20073;-62
2023/05/11 07:16:26;;;;;;;19.05;11.00;;;12.40;99.90;;;;;;5093749;28;20390;-61
2023/05/11 07:18:52;;;;;;;18.25;10.27;;;12.50;99.90;;;;;;5093416;28;20032;-60
2023/05/11 07:21:18;;;;;;;15.52;9.82;;;12.50;99.90;;;;;;5093807;28;20630;-60
2023/05/11 07:23:43;;;;;;;20.08;11.45;;;12.70;99.90;;;;;;5093331;28;20044;-61
2023/05/11 07:26:09;;;;;;;16.33;10.55;;;12.70;99.90;;;;;;5093591;28;20081;-61
2023/05/11 07:28:36;;;;;;;17.23;11.32;;;12.60;99.90;;;;;;5093274;28;20036;-61
2023/05/11 07:31:02;;;;;;;16.10;11.07;;;12.70;99.90;;;;;;5093036;28;20036;-61
2023/05/11 07:33:27;;;;;;;20.42;11.52;;;12.60;99.90;;;;;;5077994;28;20418;-61
2023/05/11 07:35:53;;;;;;;17.73;11.35;;;12.70;99.90;;;;;;5091700;28;20040;-61
2023/05/11 07:38:19;;;;;;;16.02;10.75;;;12.70;99.90;;;;;;5093164;28;20494;-61
2023/05/11 07:40:45;;;;;;;16.65;11.02;;;12.80;99.90;;;;;;5093083;28;20040;-63
2023/05/11 07:43:10;;;;;;;15.50;11.15;;;12.90;99.90;;;;;;5092866;28;20449;-61
2023/05/11 07:45:36;;;;;;;18.10;10.85;;;12.80;99.90;;;;;;5092768;28;20432;-60
2023/05/11 07:48:02;;;;;;;15.35;11.15;;;12.90;99.90;;;;;;5093283;28;20043;-60
2023/05/11 07:50:27;;;;;;;18.27;11.07;;;12.90;99.90;;;;;;5093047;28;20474;-61
2023/05/11 07:52:53;;;;;;;14.80;10.30;;;12.70;99.90;;;;;;5092535;28;20116;-60
2023/05/11 07:55:23;;;;;;;16.85;11.02;;;12.90;99.90;;;;;;5093268;28;20043;-61
2023/05/11 07:57:53;;;;;;;16.98;12.27;;;13.00;99.90;;;;;;5092708;28;20031;-61
2023/05/11 08:00:19;;;;;;;15.38;11.10;;;12.90;99.90;;;;;;5092762;28;20047;-60
2023/05/11 08:02:45;;;;;;;15.95;11.60;;;12.90;99.90;;;;;;5092207;28;20047;-60
2023/05/11 08:05:11;;;;;;;16.88;12.45;;;13.00;99.90;;;;;;5092886;28;20065;-60
2023/05/11 08:07:37;;;;;;;17.30;12.05;;;13.00;99.90;;;;;;5092182;28;20036;-61
2023/05/11 08:10:02;;;;;;;17.48;11.85;;;13.00;99.90;;;;;;5091696;28;20027;-60
2023/05/11 08:12:28;;;;;;;24.13;11.70;;;13.20;99.90;;;;;;5092454;28;20432;-60
2023/05/11 08:14:54;;;;;;;15.95;11.07;;;13.30;99.90;;;;;;5074444;28;20093;-60
2023/05/11 08:17:19;;;;;;;15.15;10.70;;;13.20;99.90;;;;;;5092353;28;20069;-60
2023/05/11 08:19:45;;;;;;;14.55;10.45;;;13.10;99.90;;;;;;5091541;28;20052;-60
2023/05/11 08:22:11;;;;;;;15.25;10.63;;;13.20;99.90;;;;;;5091120;28;20161;-60
2023/05/11 08:24:37;;;;;;;12.65;9.77;;;13.30;99.90;;;;;;5092516;28;20487;-61
2023/05/11 08:27:02;;;;;;;13.25;10.43;;;13.30;99.90;;;;;;5092252;28;20150;-61
2023/05/11 08:29:28;;;;;;;14.35;10.60;;;13.20;99.90;;;;;;5092170;28;20035;-61
2023/05/11 08:31:54;;;;;;;14.48;10.25;;;13.30;99.90;;;;;;5091122;28;20120;-61
2023/05/11 08:34:19;;;;;;;16.00;9.57;;;13.20;99.90;;;;;;5078984;28;20032;-60
2023/05/11 08:36:45;;;;;;;14.13;10.68;;;13.30;99.90;;;;;;5092429;28;20476;-60
2023/05/11 08:39:11;;;;;;;12.20;9.70;;;13.20;99.90;;;;;;5091775;28;20143;-61
2023/05/11 08:41:37;;;;;;;13.35;10.13;;;13.30;99.90;;;;;;5091879;28;20048;-60
2023/05/11 08:44:03;;;;;;;12.63;9.88;;;13.30;99.90;;;;;;5092001;28;20089;-61
2023/05/11 08:46:33;;;;;;;12.75;9.15;;;13.20;99.90;;;;;;5090629;28;20032;-61
2023/05/11 08:48:59;;;;;;;12.30;9.75;;;13.20;99.90;;;;;;5090636;28;20039;-60
2023/05/11 08:51:25;;;;;;;13.45;9.48;;;13.20;99.90;;;;;;5092097;28;20047;-60
2023/05/11 08:53:52;;;;;;;14.77;10.50;;;13.20;99.90;;;;;;5092050;28;20048;-61
2023/05/11 08:56:20;;;;;;;16.15;10.95;;;13.20;99.90;;;;;;5091625;28;20040;-61
2023/05/11 08:58:46;;;;;;;;;;;13.20;99.90;;;;;;5092457;28;20083;-60
2023/05/11 09:01:13;;;;;;;13.93;10.30;;;13.20;99.90;;;;;;5091674;28;19974;-60
2023/05/11 09:03:40;;;;;;;14.05;9.93;;;13.20;99.90;;;;;;5092906;28;20036;-60
2023/05/11 09:06:07;;;;;;;15.68;10.85;;;13.20;99.90;;;;;;5095806;28;20032;-61
2023/05/11 09:08:37;;;;;;;15.23;10.63;;;13.40;99.90;;;;;;5095863;28;20539;-61
2023/05/11 09:11:03;;;;;;;14.00;8.95;;;13.40;99.90;;;;;;5095798;28;20032;-61
2023/05/11 09:13:30;;;;;;;14.25;10.20;;;13.40;99.90;;;;;;5095932;28;20500;-60
2023/05/11 09:15:56;;;;;;;13.48;10.15;;;13.50;99.90;;;;;;5095866;28;20123;-61
2023/05/11 09:18:22;;;;;;;11.20;9.25;;;13.60;99.90;;;;;;5095891;28;20089;-60
2023/05/11 09:20:50;;;;;;;15.70;10.43;;;13.50;99.90;;;;;;5095821;28;20044;-60
2023/05/11 09:23:16;;;;;;;14.65;10.15;;;13.50;99.90;;;;;;5095468;28;20047;-60
2023/05/11 09:25:42;;;;;;;17.33;11.82;;;13.50;99.90;;;;;;5095659;28;20478;-61
2023/05/11 09:28:12;;;;;;;15.63;10.15;;;13.50;99.90;;;;;;5095612;28;20115;-60
2023/05/11 09:30:37;;;;;;;13.48;9.77;;;13.70;99.90;;;;;;5095751;28;20044;-61
2023/05/11 09:33:03;;;;;;;14.15;9.48;;;13.60;99.90;;;;;;5085317;28;20053;-61
2023/05/11 09:35:33;;;;;;;13.40;10.25;;;13.70;99.90;;;;;;5090318;28;20040;-60
2023/05/11 09:38:06;;;;;;;13.45;9.82;;;13.90;99.90;;;;;;5095627;28;20044;-60
2023/05/11 09:40:35;;;;;;;11.65;8.95;;;14.00;99.90;;;;;;5095108;28;20044;-61
2023/05/11 09:43:02;;;;;;;11.23;9.32;;;14.20;99.90;;;;;;5094225;28;20036;-61
2023/05/11 09:45:35;;;;;;;10.98;9.00;;;14.60;99.90;;;;;;5095383;28;20482;-61
2023/05/11 09:48:02;;;;;;;13.30;9.02;;;14.80;99.90;;;;;;5095204;28;20040;-62
2023/05/11 09:50:33;;;;;;;11.50;8.43;;;15.00;99.90;;;;;;5095622;28;20043;-62
2023/05/11 09:52:59;;;;;;;12.70;9.90;;;15.40;99.90;;;;;;5081226;28;20394;-61
2023/05/11 09:55:24;;;;;;;10.63;8.60;;;15.50;99.90;;;;;;5095503;28;20059;-60
2023/05/11 09:57:57;;;;;;;9.07;8.13;;;15.40;99.90;;;;;;5095195;28;20138;-60
2023/05/11 10:00:25;;;;;;;9.75;8.05;;;15.50;99.90;;;;;;5095139;28;20036;-60
2023/05/11 10:02:58;;;;;;;;;;;15.80;99.90;;;;;;5095670;28;20043;-61
2023/05/11 10:05:24;;;;;;;9.88;8.10;;;15.80;99.90;;;;;;5093550;28;20371;-61
2023/05/11 10:08:00;;;;;;;9.02;7.05;;;16.00;99.90;;;;;;5094892;28;20115;-61
2023/05/11 10:10:28;;;;;;;10.77;7.35;;;16.10;99.90;;;;;;5095070;28;20028;-61
2023/05/11 10:12:55;;;;;;;9.23;7.57;;;16.00;99.90;;;;;;5094825;28;20047;-61
2023/05/11 10:15:25;;;;;;;8.65;7.25;;;15.90;99.90;;;;;;5094280;28;20039;-61
2023/05/11 10:17:53;;;;;;;10.18;7.38;;;15.90;99.90;;;;;;5095253;28;20063;-62
2023/05/11 10:20:19;;;;;;;9.87;7.83;;;16.10;99.90;;;;;;5094492;28;20036;-61
2023/05/11 10:22:45;;;;;;;9.07;7.38;;;16.20;99.90;;;;;;5094624;28;20294;-61
2023/05/11 10:25:12;;;;;;;9.00;8.00;;;16.20;99.90;;;;;;5094738;28;20417;-61
2023/05/11 10:27:38;;;;;;;10.18;8.30;;;16.30;99.90;;;;;;5091224;28;20043;-61
2023/05/11 10:30:06;;;;;;;8.73;7.72;;;16.30;99.90;;;;;;5077632;28;20033;-61
2023/05/11 10:32:36;;;;;;;9.30;7.73;;;16.40;99.90;;;;;;5073212;28;20102;-61
2023/05/11 10:35:03;;;;;;;9.15;7.15;;;16.50;99.90;;;;;;5086755;28;20058;-61
2023/05/11 10:37:29;;;;;;;9.68;8.48;;;16.60;99.90;;;;;;5094194;28;20494;-61
2023/05/11 10:39:56;;;;;;;10.93;7.88;;;16.60;99.90;;;;;;5094201;28;20058;-61
2023/05/11 10:42:56;;;;;;;7.45;6.68;;;16.80;99.90;;;;;;5093835;28;20116;-61
2023/05/11 10:45:30;;;;;;;8.00;7.10;;;17.00;99.90;;;;;;5094373;28;20040;-61
2023/05/11 10:48:19;;;;;;;6.80;6.10;;;17.10;99.90;;;;;;5080888;28;20036;-62
2023/05/11 10:51:08;;;;;;;9.18;7.72;;;17.30;99.90;;;;;;5093849;28;20115;-61
2023/05/11 10:54:00;;;;;;;8.02;6.88;;;17.40;99.90;;;;;;5094181;28;20435;-62
2023/05/11 10:56:56;;;;;;;8.68;7.78;;;17.40;99.90;;;;;;5094155;28;20044;-62
2023/05/11 10:59:45;;;;;;;7.68;6.88;;;17.20;99.90;;;;;;5092526;28;20461;-61
2023/05/11 11:02:11;;;;;;;7.43;6.55;;;17.50;99.90;;;;;;5085682;28;20440;-61
2023/05/11 11:04:45;;;;;;;11.45;6.57;;;17.40;99.90;;;;;;5093889;28;20067;-60
2023/05/11 11:07:16;;;;;;;6.47;5.78;;;17.50;99.90;;;;;;5093759;28;20401;-61
2023/05/11 11:09:53;;;;;;;6.88;5.57;;;17.30;99.90;;;;;;5093497;28;20036;-61
2023/05/11 11:12:20;;;;;;;7.60;6.03;;;17.50;99.90;;;;;;5092235;28;20058;-61
2023/05/11 11:15:04;;;;;;;8.20;7.40;;;17.70;99.90;;;;;;5093654;28;20123;-61
2023/05/11 11:17:33;;;;;;;6.45;5.85;;;17.70;99.90;;;;;;5092267;28;20147;-61
2023/05/11 11:20:03;;;;;;;6.32;5.72;;;17.70;99.90;;;;;;5093370;28;20394;-61
2023/05/11 11:22:35;;;;;;;6.50;5.78;;;17.50;99.90;;;;;;5093112;28;20505;-61
2023/05/11 11:25:14;;;;;;;5.57;4.95;;;17.50;99.90;;;;;;5093360;28;20032;-60
2023/05/11 11:27:40;;;;;;;6.30;5.57;;;17.60;99.90;;;;;;5092517;28;20040;-61
2023/05/11 11:30:25;;;;;;;6.75;5.00;;;17.60;99.90;;;;;;5092905;28;20085;-61
2023/05/11 11:32:53;;;;;;;6.45;5.13;;;17.60;99.90;;;;;;5084327;28;20123;-61
2023/05/11 11:35:40;;;;;;;6.68;5.18;;;17.80;99.90;;;;;;5087732;28;20124;-61
2023/05/11 11:38:07;;;;;;;6.93;5.15;;;17.80;99.90;;;;;;5093457;28;20173;-61
2023/05/11 11:40:44;;;;;;;6.55;5.53;;;17.70;99.90;;;;;;5092585;28;20498;-61
2023/05/11 11:43:23;;;;;;;10.32;5.57;;;17.60;99.90;;;;;;5092871;28;20032;-61
2023/05/11 11:45:55;;;;;;;;;;;17.70;99.90;;;;;;5093220;28;20036;-62
2023/05/11 11:48:30;;;;;;;5.38;3.70;;;17.70;99.90;;;;;;5092831;28;19924;-62
2023/05/11 11:51:06;;;;;;;5.80;4.18;;;17.80;99.90;;;;;;5092821;28;20039;-61
2023/05/11 11:53:40;;;;;;;3.60;3.25;;;17.90;99.90;;;;;;5092781;28;20126;-63
2023/05/11 11:56:27;;;;;;;3.38;3.08;;;18.20;99.90;;;;;;5092250;28;20388;-61
2023/05/11 11:59:00;;;;;;;3.00;2.17;;;18.40;99.90;;;;;;5092576;28;20157;-62
2023/05/11 12:01:28;;;;;;;4.47;2.03;;;18.50;99.90;;;;;;5091307;28;20081;-62
2023/05/11 12:04:03;;;;;;;4.05;2.15;;;18.70;99.90;;;;;;5092504;28;20040;-62
2023/05/11 12:06:36;;;;;;;2.20;1.90;;;18.60;99.90;;;;;;5092218;28;20048;-61
2023/05/11 12:09:03;;;;;;;2.08;1.88;;;18.80;99.90;;;;;;5091266;28;20535;-61
2023/05/11 12:11:29;;;;;;;3.88;2.17;;;18.90;99.90;;;;;;5092560;28;20054;-61
2023/05/11 12:13:56;;;;;;;3.88;1.60;;;18.90;99.90;;;;;;5092956;28;20367;-61
2023/05/11 12:16:22;;;;;;;1.67;1.33;;;18.90;99.90;;;;;;5092267;28;20048;-61
2023/05/11 12:18:53;;;;;;;3.47;1.05;;;18.60;99.90;;;;;;5092445;28;20047;-61
2023/05/11 12:21:23;;;;;;;3.33;1.20;;;18.70;99.90;;;;;;5091972;28;20036;-62
2023/05/11 12:23:56;;;;;;;1.65;0.90;;;18.80;99.90;;;;;;5092180;28;20092;-62
2023/05/11 12:26:24;;;;;;;2.25;1.02;;;18.60;99.90;;;;;;5092147;28;20057;-61
2023/05/11 12:28:51;;;;;;;1.63;1.10;;;18.60;99.90;;;;;;5092129;28;20457;-61
2023/05/11 12:31:17;;;;;;;3.17;1.08;;;18.60;99.90;;;;;;5091874;28;20028;-61
2023/05/11 12:33:48;;;;;;;1.38;1.15;;;18.60;99.90;;;;;;5077771;28;20036;-61
2023/05/11 12:36:17;;;;;;;1.40;1.30;;;18.50;99.90;;;;;;5092203;28;20032;-62
2023/05/11 12:38:47;;;;;;;2.33;1.30;;;18.40;99.90;;;;;;5091910;28;20060;-61
2023/05/11 12:41:22;;;;;;;1.70;1.60;;;18.50;99.90;;;;;;5091276;28;20055;-61